createdAt,value
2023-03-05T00:01:39.732Z,75.22
2023-03-05T00:04:07.389Z,75.18
2023-03-05T00:06:35.049Z,75.18
2023-03-05T00:09:02.812Z,75.00
2023-03-05T00:11:30.572Z,75.08
2023-03-05T00:13:58.238Z,75.31
2023-03-05T00:16:28.878Z,75.39
2023-03-05T00:18:56.631Z,75.48
2023-03-05T00:21:24.602Z,75.58
2023-03-05T00:23:52.263Z,75.56
2023-03-05T00:26:20.023Z,75.47
2023-03-05T00:28:50.140Z,75.24
2023-03-05T00:31:18.071Z,75.46
2023-03-05T00:33:45.983Z,75.62
2023-03-05T00:36:13.637Z,75.41
2023-03-05T00:38:41.305Z,75.51
2023-03-05T00:41:08.965Z,75.52
2023-03-05T00:43:36.626Z,75.63
2023-03-05T00:46:04.306Z,75.79
2023-03-05T00:48:32.051Z,75.76
2023-03-05T00:50:59.717Z,75.70
2023-03-05T00:53:27.376Z,75.84
2023-03-05T00:55:55.145Z,76.19
2023-03-05T00:58:22.904Z,74.84
2023-03-05T01:00:50.867Z,74.50
2023-03-05T01:03:18.641Z,73.87
2023-03-05T01:05:46.493Z,73.13
2023-03-05T01:08:14.151Z,72.62
2023-03-05T01:10:41.924Z,72.18
2023-03-05T01:13:09.775Z,71.94
2023-03-05T01:15:37.436Z,71.51
2023-03-05T01:18:05.096Z,71.25
2023-03-05T01:20:32.762Z,71.06
2023-03-05T01:23:02.009Z,70.72
2023-03-05T01:25:29.655Z,70.49
2023-03-05T01:27:57.374Z,70.11
2023-03-05T01:30:25.035Z,70.01
2023-03-05T01:32:52.797Z,70.16
2023-03-05T01:35:20.605Z,69.95
2023-03-05T01:37:48.428Z,70.06
2023-03-05T01:40:16.091Z,69.77
2023-03-05T01:42:43.752Z,68.82
2023-03-05T01:45:11.422Z,68.93
2023-03-05T01:47:39.077Z,68.99
2023-03-05T01:50:06.737Z,69.10
2023-03-05T01:52:34.500Z,69.13
2023-03-05T01:55:02.163Z,69.16
2023-03-05T01:57:29.822Z,69.43
2023-03-05T01:59:57.486Z,69.13
2023-03-05T02:02:25.259Z,69.06
2023-03-05T02:04:54.547Z,68.96
2023-03-05T02:07:22.312Z,69.48
2023-03-05T02:09:50.079Z,69.26
2023-03-05T02:12:17.840Z,69.23
2023-03-05T02:14:45.511Z,69.24
2023-03-05T02:17:13.178Z,68.89
2023-03-05T02:19:40.930Z,68.51
2023-03-05T02:22:08.594Z,67.98
2023-03-05T02:24:36.271Z,67.53
2023-03-05T02:27:04.016Z,67.97
2023-03-05T02:29:31.704Z,68.36
2023-03-05T02:31:59.511Z,68.00
2023-03-05T02:34:27.315Z,67.69
2023-03-05T02:36:55.892Z,67.77
2023-03-05T02:39:23.728Z,67.74
2023-03-05T02:41:51.420Z,67.42
2023-03-05T02:44:19.189Z,67.40
2023-03-05T02:46:46.846Z,67.15
2023-03-05T02:49:14.507Z,66.73
2023-03-05T02:51:42.170Z,66.76
2023-03-05T02:54:09.933Z,66.42
2023-03-05T02:56:38.635Z,66.11
2023-03-05T02:59:06.381Z,65.92
2023-03-05T03:01:34.289Z,65.88
2023-03-05T03:04:02.122Z,65.86
2023-03-05T03:06:29.878Z,65.47
2023-03-05T03:08:57.551Z,65.52
2023-03-05T03:11:25.208Z,65.62
2023-03-05T03:13:52.868Z,65.48
2023-03-05T03:16:20.680Z,65.10
2023-03-05T03:18:49.157Z,65.21
2023-03-05T03:21:16.980Z,65.39
2023-03-05T03:23:44.639Z,65.45
2023-03-05T03:26:12.403Z,65.97
2023-03-05T03:28:40.382Z,66.68
2023-03-05T03:31:08.121Z,67.24
2023-03-05T03:33:36.003Z,67.95
2023-03-05T03:36:03.769Z,68.33
2023-03-05T03:38:31.738Z,68.92
2023-03-05T03:40:59.422Z,69.46
2023-03-05T03:43:27.062Z,69.89
2023-03-05T03:45:54.762Z,70.12
2023-03-05T03:48:22.595Z,70.48
2023-03-05T03:50:50.354Z,70.64
2023-03-05T03:53:18.117Z,70.71
2023-03-05T03:55:46.908Z,70.70
2023-03-05T03:58:14.571Z,70.74
2023-03-05T04:00:42.227Z,70.86
2023-03-05T04:03:10.003Z,70.98
2023-03-05T04:05:37.764Z,70.91
2023-03-05T04:08:06.148Z,70.93
2023-03-05T04:10:33.777Z,70.95
2023-03-05T04:13:01.458Z,71.06
2023-03-05T04:15:29.221Z,70.95
2023-03-05T04:17:56.887Z,70.86
2023-03-05T04:20:24.546Z,70.76
2023-03-05T04:22:52.308Z,70.67
2023-03-05T04:25:19.972Z,70.78
2023-03-05T04:27:47.629Z,70.72
2023-03-05T04:30:15.392Z,70.78
2023-03-05T04:32:43.066Z,70.59
2023-03-05T04:35:10.713Z,70.28
2023-03-05T04:37:38.374Z,70.13
2023-03-05T04:40:06.137Z,70.30
2023-03-05T04:42:33.920Z,70.28
2023-03-05T04:45:01.687Z,69.86
2023-03-05T04:47:29.427Z,69.77
2023-03-05T04:49:57.088Z,69.16
2023-03-05T04:52:24.780Z,68.78
2023-03-05T04:54:52.625Z,68.33
2023-03-05T04:57:21.738Z,67.92
2023-03-05T04:59:50.908Z,67.93
2023-03-05T05:02:18.569Z,67.90
2023-03-05T05:04:46.343Z,67.74
2023-03-05T05:07:14.100Z,67.68
2023-03-05T05:09:41.779Z,67.82
2023-03-05T05:12:10.658Z,68.11
2023-03-05T05:14:38.417Z,68.14
2023-03-05T05:17:06.190Z,68.01
2023-03-05T05:19:33.951Z,67.80
2023-03-05T05:22:01.809Z,67.70
2023-03-05T05:24:29.574Z,67.43
2023-03-05T05:26:57.337Z,67.63
2023-03-05T05:29:24.999Z,67.74
2023-03-05T05:31:54.500Z,67.33
2023-03-05T05:34:22.375Z,66.77
2023-03-05T05:36:50.033Z,66.79
2023-03-05T05:39:20.130Z,67.13
2023-03-05T05:41:48.126Z,66.94
2023-03-05T05:44:15.787Z,67.10
2023-03-05T05:46:43.512Z,66.99
2023-03-05T05:49:11.421Z,67.06
2023-03-05T05:51:39.183Z,66.28
2023-03-05T05:54:06.845Z,66.33
2023-03-05T05:56:34.609Z,65.39
2023-03-05T05:59:02.266Z,65.38
2023-03-05T06:01:30.045Z,65.14
2023-03-05T06:03:57.796Z,65.49
2023-03-05T06:06:25.561Z,65.48
2023-03-05T06:08:53.222Z,65.52
2023-03-05T06:11:20.885Z,65.40
2023-03-05T06:13:48.661Z,65.04
2023-03-05T06:16:16.456Z,65.08
2023-03-05T06:18:44.176Z,65.20
2023-03-05T06:21:11.939Z,64.72
2023-03-05T06:23:39.708Z,64.42
2023-03-05T06:26:07.370Z,64.47
2023-03-05T06:28:35.139Z,64.16
2023-03-05T06:31:02.951Z,63.40
2023-03-05T06:33:30.758Z,62.89
2023-03-05T06:35:58.441Z,63.28
2023-03-05T06:38:26.184Z,63.87
2023-03-05T06:40:54.053Z,63.99
2023-03-05T06:43:21.837Z,63.36
2023-03-05T06:45:49.607Z,63.24
2023-03-05T06:48:17.349Z,62.55
2023-03-05T06:50:45.004Z,62.61
2023-03-05T06:53:12.665Z,62.19
2023-03-05T06:55:40.635Z,62.06
2023-03-05T06:58:08.510Z,62.41
2023-03-05T07:00:36.263Z,62.32
2023-03-05T07:03:03.953Z,62.48
2023-03-05T07:05:33.314Z,62.34
2023-03-05T07:08:04.469Z,62.33
2023-03-05T07:10:32.238Z,62.22
2023-03-05T07:13:00.099Z,62.34
2023-03-05T07:15:27.765Z,62.30
2023-03-05T07:17:56.857Z,62.22
2023-03-05T07:20:24.633Z,62.19
2023-03-05T07:22:52.386Z,62.35
2023-03-05T07:25:21.888Z,62.20
2023-03-05T07:27:49.652Z,62.05
2023-03-05T07:30:17.316Z,61.99
2023-03-05T07:32:44.982Z,62.00
2023-03-05T07:35:12.638Z,62.07
2023-03-05T07:37:40.398Z,62.24
2023-03-05T07:40:08.066Z,62.46
2023-03-05T07:42:35.782Z,62.58
2023-03-05T07:45:03.693Z,62.48
2023-03-05T07:47:31.770Z,62.34
2023-03-05T07:49:59.543Z,62.04
2023-03-05T07:52:27.301Z,62.48
2023-03-05T07:54:55.065Z,62.57
2023-03-05T07:57:22.821Z,62.67
2023-03-05T07:59:50.483Z,62.34
2023-03-05T08:02:19.906Z,62.71
2023-03-05T08:04:47.755Z,62.37
2023-03-05T08:07:16.302Z,62.51
2023-03-05T08:09:44.300Z,62.93
2023-03-05T08:12:11.991Z,63.30
2023-03-05T08:14:39.628Z,63.10
2023-03-05T08:17:08.417Z,63.05
2023-03-05T08:19:36.081Z,63.14
2023-03-05T08:22:03.986Z,63.18
2023-03-05T08:24:31.815Z,63.51
2023-03-05T08:26:59.782Z,63.64
2023-03-05T08:29:27.552Z,64.03
2023-03-05T08:31:55.919Z,63.96
2023-03-05T08:34:23.580Z,63.99
2023-03-05T08:36:51.956Z,64.15
2023-03-05T08:39:19.620Z,64.34
2023-03-05T08:41:47.286Z,64.56
2023-03-05T08:44:15.044Z,64.61
2023-03-05T08:46:42.867Z,64.51
2023-03-05T08:49:10.687Z,64.61
2023-03-05T08:51:38.342Z,64.76
2023-03-05T08:54:07.751Z,64.89
2023-03-05T08:56:35.509Z,65.18
2023-03-05T08:59:03.384Z,65.27
2023-03-05T09:01:32.209Z,65.51
2023-03-05T09:03:59.985Z,65.72
2023-03-05T09:06:27.744Z,65.99
2023-03-05T09:08:55.559Z,66.30
2023-03-05T09:11:23.431Z,66.46
2023-03-05T09:13:51.185Z,66.43
2023-03-05T09:16:18.966Z,66.52
2023-03-05T09:18:46.931Z,66.82
2023-03-05T09:21:14.686Z,66.91
2023-03-05T09:23:42.444Z,66.97
2023-03-05T09:26:10.309Z,67.15
2023-03-05T09:28:38.073Z,67.18
2023-03-05T09:31:05.732Z,67.36
2023-03-05T09:33:33.503Z,67.41
2023-03-05T09:36:01.166Z,67.71
2023-03-05T09:38:28.828Z,67.74
2023-03-05T09:40:56.588Z,67.55
2023-03-05T09:43:24.247Z,67.59
2023-03-05T09:45:51.934Z,67.70
2023-03-05T09:48:20.492Z,67.47
2023-03-05T09:50:48.568Z,67.66
2023-03-05T09:53:16.327Z,67.67
2023-03-05T09:55:44.198Z,67.73
2023-03-05T09:58:12.370Z,67.65
2023-03-05T10:00:40.041Z,67.63
2023-03-05T10:03:07.835Z,67.47
2023-03-05T10:05:35.658Z,67.55
2023-03-05T10:08:03.526Z,67.42
2023-03-05T10:10:31.190Z,67.33
2023-03-05T10:12:58.956Z,66.98
2023-03-05T10:15:26.619Z,66.96
2023-03-05T10:17:55.505Z,67.01
2023-03-05T10:20:23.795Z,67.15
2023-03-05T10:22:51.542Z,66.55
2023-03-05T10:25:19.720Z,66.49
2023-03-05T10:27:48.811Z,66.48
2023-03-05T10:30:16.473Z,65.84
2023-03-05T10:32:44.198Z,65.86
2023-03-05T10:35:12.013Z,65.90
2023-03-05T10:37:39.665Z,65.91
2023-03-05T10:40:10.090Z,66.16
2023-03-05T10:42:37.853Z,66.06
2023-03-05T10:45:05.515Z,66.19
2023-03-05T10:47:34.313Z,66.15
2023-03-05T10:50:02.093Z,66.19
2023-03-05T10:52:29.834Z,65.91
2023-03-05T10:54:57.599Z,66.03
2023-03-05T10:57:25.270Z,65.99
2023-03-05T10:59:52.926Z,65.59
2023-03-05T11:02:20.700Z,65.61
2023-03-05T11:04:48.546Z,65.40
2023-03-05T11:07:16.313Z,65.59
2023-03-05T11:09:44.075Z,65.05
2023-03-05T11:12:11.734Z,64.50
2023-03-05T11:14:40.009Z,63.66
2023-03-05T11:17:07.669Z,63.32
2023-03-05T11:19:35.746Z,64.11
2023-03-05T11:22:03.607Z,63.98
2023-03-05T11:24:31.279Z,64.32
2023-03-05T11:26:59.670Z,64.13
2023-03-05T11:29:27.516Z,64.13
2023-03-05T11:31:55.279Z,64.23
2023-03-05T11:34:26.011Z,64.09
2023-03-05T11:36:53.673Z,64.59
2023-03-05T11:39:22.785Z,64.76
2023-03-05T11:41:50.536Z,64.82
2023-03-05T11:44:18.207Z,65.22
2023-03-05T11:46:46.074Z,65.14
2023-03-05T11:49:13.823Z,65.09
2023-03-05T11:51:42.407Z,65.26
2023-03-05T11:54:10.172Z,64.65
2023-03-05T11:56:39.376Z,64.79
2023-03-05T11:59:07.034Z,65.07
2023-03-05T12:01:34.700Z,65.19
2023-03-05T12:04:02.455Z,65.19
2023-03-05T12:06:30.736Z,65.18
2023-03-05T12:08:58.405Z,65.04
2023-03-05T12:11:26.573Z,64.94
2023-03-05T12:13:54.335Z,64.82
2023-03-05T12:16:24.422Z,64.80
2023-03-05T12:18:52.226Z,64.78
2023-03-05T12:21:19.985Z,65.01
2023-03-05T12:23:47.648Z,65.42
2023-03-05T12:26:15.417Z,65.50
2023-03-05T12:28:43.172Z,65.11
2023-03-05T12:31:10.850Z,65.39
2023-03-05T12:33:38.605Z,65.32
2023-03-05T12:36:06.603Z,65.46
2023-03-05T12:38:34.742Z,66.29
2023-03-05T12:41:02.401Z,66.87
2023-03-05T12:43:30.375Z,67.31
2023-03-05T12:45:58.034Z,67.64
2023-03-05T12:48:25.716Z,67.91
2023-03-05T12:50:53.359Z,68.00
2023-03-05T12:53:21.017Z,68.30
2023-03-05T12:55:48.812Z,68.30
2023-03-05T12:58:16.550Z,68.93
2023-03-05T13:00:44.257Z,69.26
2023-03-05T13:03:12.074Z,69.88
2023-03-05T13:05:39.836Z,70.48
2023-03-05T13:08:07.706Z,70.44
2023-03-05T13:10:35.362Z,70.90
2023-03-05T13:13:03.125Z,71.55
2023-03-05T13:15:30.886Z,72.03
2023-03-05T13:17:58.868Z,72.54
2023-03-05T13:20:26.622Z,72.92
2023-03-05T13:22:54.284Z,73.34
2023-03-05T13:25:22.042Z,73.47
2023-03-05T13:27:49.704Z,73.51
2023-03-05T13:30:17.366Z,73.47
2023-03-05T13:32:45.133Z,73.09
2023-03-05T13:35:12.897Z,72.00
2023-03-05T13:37:40.553Z,71.06
2023-03-05T13:40:08.380Z,70.74
2023-03-05T13:42:37.328Z,70.51
2023-03-05T13:45:05.030Z,70.39
2023-03-05T13:47:32.738Z,70.38
2023-03-05T13:50:00.604Z,70.44
2023-03-05T13:52:29.919Z,70.15
2023-03-05T13:54:57.662Z,70.16
2023-03-05T13:57:25.333Z,70.42
2023-03-05T13:59:53.809Z,70.24
2023-03-05T14:02:22.594Z,70.08
2023-03-05T14:04:51.646Z,70.15
2023-03-05T14:07:19.453Z,69.81
2023-03-05T14:09:47.637Z,69.42
2023-03-05T14:12:15.543Z,68.77
2023-03-05T14:14:43.363Z,68.80
2023-03-05T14:17:11.022Z,69.08
2023-03-05T14:19:38.811Z,69.17
2023-03-05T14:22:06.553Z,69.47
2023-03-05T14:24:34.422Z,69.69
2023-03-05T14:27:05.804Z,69.86
2023-03-05T14:29:33.530Z,69.98
2023-03-05T14:32:01.323Z,70.42
2023-03-05T14:34:29.122Z,70.70
2023-03-05T14:36:56.925Z,70.92
2023-03-05T14:39:24.584Z,71.86
2023-03-05T14:41:52.236Z,72.46
2023-03-05T14:44:20.626Z,72.59
2023-03-05T14:46:48.297Z,72.84
2023-03-05T14:49:16.057Z,72.73
2023-03-05T14:51:43.841Z,72.33
2023-03-05T14:54:11.486Z,72.55
2023-03-05T14:56:39.245Z,72.49
2023-03-05T14:59:06.912Z,72.41
2023-03-05T15:01:34.608Z,72.46
2023-03-05T15:04:02.400Z,72.52
2023-03-05T15:06:30.129Z,72.30
2023-03-05T15:08:57.860Z,72.47
2023-03-05T15:11:25.827Z,72.39
2023-03-05T15:13:53.490Z,72.14
2023-03-05T15:16:21.254Z,72.20
2023-03-05T15:18:49.018Z,72.39
2023-03-05T15:21:16.783Z,72.32
2023-03-05T15:23:45.272Z,72.43
2023-03-05T15:26:13.023Z,72.55
2023-03-05T15:28:40.689Z,72.34
2023-03-05T15:31:08.400Z,72.32
2023-03-05T15:33:36.220Z,72.47
2023-03-05T15:36:03.974Z,72.71
2023-03-05T15:38:31.739Z,72.69
2023-03-05T15:41:01.668Z,72.63
2023-03-05T15:43:30.853Z,72.67
2023-03-05T15:45:58.638Z,72.55
2023-03-05T15:48:26.379Z,72.43
2023-03-05T15:50:54.150Z,72.41
2023-03-05T15:53:23.547Z,72.45
2023-03-05T15:55:51.314Z,72.31
2023-03-05T15:58:19.076Z,72.21
2023-03-05T16:00:56.900Z,72.09
2023-03-05T16:03:29.447Z,71.97
2023-03-05T16:05:57.213Z,71.50
2023-03-05T16:08:24.880Z,70.86
2023-03-05T16:10:52.938Z,67.51
2023-03-05T16:13:21.821Z,65.95
2023-03-05T16:15:53.278Z,65.37
2023-03-05T16:18:21.573Z,64.33
2023-03-05T16:20:49.332Z,64.73
2023-03-05T16:23:17.100Z,64.02
2023-03-05T16:25:44.962Z,63.79
2023-03-05T16:28:12.625Z,64.72
2023-03-05T16:30:41.112Z,64.92
2023-03-05T16:33:08.767Z,64.21
2023-03-05T16:35:36.479Z,64.26
2023-03-05T16:38:04.295Z,64.81
2023-03-05T16:40:51.371Z,65.13
2023-03-05T16:43:19.917Z,65.98
2023-03-05T16:45:47.659Z,66.16
2023-03-05T16:48:15.421Z,66.43
2023-03-05T16:50:43.095Z,67.01
2023-03-05T16:53:10.847Z,67.37
2023-03-05T16:55:39.326Z,67.62
2023-03-05T16:58:06.994Z,68.07
2023-03-05T17:00:35.248Z,68.75
2023-03-05T17:03:03.131Z,69.13
2023-03-05T17:05:31.107Z,69.34
2023-03-05T17:07:58.864Z,69.88
2023-03-05T17:10:26.626Z,70.25
2023-03-05T17:12:54.775Z,70.44
2023-03-05T17:15:22.565Z,70.63
2023-03-05T17:17:50.225Z,70.72
2023-03-05T17:20:17.989Z,70.81
2023-03-05T17:22:45.754Z,71.23
2023-03-05T17:25:13.415Z,71.50
2023-03-05T17:27:41.196Z,71.56
2023-03-05T17:30:08.945Z,71.65
2023-03-05T17:32:36.648Z,72.09
2023-03-05T17:35:05.537Z,72.19
2023-03-05T17:37:33.468Z,72.65
2023-03-05T17:40:01.314Z,73.18
2023-03-05T17:42:29.196Z,73.36
2023-03-05T17:44:59.401Z,73.37
2023-03-05T17:47:27.283Z,73.61
2023-03-05T17:49:54.947Z,74.02
2023-03-05T17:52:23.218Z,73.72
2023-03-05T17:54:53.276Z,73.78
2023-03-05T17:57:21.006Z,73.56
2023-03-05T17:59:48.768Z,73.50
2023-03-05T18:02:16.423Z,73.32
2023-03-05T18:04:44.400Z,73.40
2023-03-05T18:07:12.173Z,73.35
2023-03-05T18:09:40.043Z,73.25
2023-03-05T18:12:07.789Z,73.07
2023-03-05T18:14:35.455Z,72.94
2023-03-05T18:17:03.216Z,72.84
2023-03-05T18:19:30.982Z,73.05
2023-03-05T18:21:58.745Z,73.08
2023-03-05T18:24:26.512Z,73.03
2023-03-05T18:26:54.272Z,72.98
2023-03-05T18:29:22.034Z,72.94
2023-03-05T18:31:49.900Z,73.11
2023-03-05T18:34:19.406Z,73.21
2023-03-05T18:36:47.094Z,73.41
2023-03-05T18:39:16.469Z,73.22
2023-03-05T18:41:44.128Z,73.21
2023-03-05T18:44:13.120Z,73.60
2023-03-05T18:46:40.885Z,73.59
2023-03-05T18:49:12.136Z,73.65
2023-03-05T18:51:39.790Z,73.60
2023-03-05T18:54:07.555Z,73.95
2023-03-05T18:56:35.318Z,73.86
2023-03-05T18:59:03.083Z,74.05
2023-03-05T19:01:30.788Z,73.93
2023-03-05T19:03:58.668Z,74.07
2023-03-05T19:06:26.497Z,74.02
2023-03-05T19:08:57.638Z,74.38
2023-03-05T19:11:25.303Z,74.38
2023-03-05T19:13:53.046Z,74.39
2023-03-05T19:16:20.825Z,74.07
2023-03-05T19:19:02.499Z,74.29
2023-03-05T19:21:30.473Z,74.28
2023-03-05T19:23:58.648Z,74.20
2023-03-05T19:26:26.309Z,74.27
2023-03-05T19:28:54.275Z,74.10
2023-03-05T19:31:21.994Z,74.24
2023-03-05T19:33:49.814Z,74.36
2023-03-05T19:36:17.771Z,74.40
2023-03-05T19:38:46.446Z,74.52
2023-03-05T19:41:17.929Z,74.70
2023-03-05T19:43:46.795Z,74.69
2023-03-05T19:46:14.480Z,74.62
2023-03-05T19:48:42.734Z,74.43
2023-03-05T19:51:10.598Z,74.72
2023-03-05T19:53:38.568Z,75.04
2023-03-05T19:56:06.841Z,74.93
2023-03-05T19:58:34.490Z,74.92
2023-03-05T20:01:02.271Z,74.98
2023-03-05T20:03:30.041Z,75.08
2023-03-05T20:05:57.794Z,75.05
2023-03-05T20:08:25.455Z,74.85
2023-03-05T20:10:53.181Z,74.94
2023-03-05T20:13:21.190Z,75.20
2023-03-05T20:15:48.974Z,75.51
2023-03-05T20:18:16.618Z,75.60
2023-03-05T20:20:44.282Z,75.74
2023-03-05T20:23:12.049Z,75.67
2023-03-05T20:25:39.806Z,75.87
2023-03-05T20:28:08.390Z,75.85
2023-03-05T20:30:36.268Z,75.86
2023-03-05T20:33:04.333Z,75.92
2023-03-05T20:35:32.122Z,76.11
2023-03-05T20:38:18.696Z,76.23
2023-03-05T20:40:46.460Z,76.30
2023-03-05T20:43:14.126Z,76.66
2023-03-05T20:45:41.788Z,76.46
2023-03-05T20:48:09.549Z,76.44
2023-03-05T20:50:37.316Z,76.60
2023-03-05T20:53:05.078Z,76.69
2023-03-05T20:55:32.860Z,76.79
2023-03-05T20:58:00.537Z,76.87
2023-03-05T21:00:28.303Z,76.51
2023-03-05T21:02:56.594Z,76.43
2023-03-05T21:05:24.622Z,76.32
2023-03-05T21:07:52.790Z,76.49
2023-03-05T21:10:20.558Z,76.52
2023-03-05T21:12:48.327Z,76.49
2023-03-05T21:15:15.981Z,76.47
2023-03-05T21:17:44.263Z,76.45
2023-03-05T21:20:12.022Z,76.43
2023-03-05T21:22:39.684Z,76.43
2023-03-05T21:25:21.290Z,75.98
2023-03-05T21:27:49.136Z,76.08
2023-03-05T21:30:16.797Z,75.96
2023-03-05T21:32:44.766Z,76.29
2023-03-05T21:35:12.461Z,75.96
2023-03-05T21:37:42.679Z,75.85
2023-03-05T21:40:10.413Z,75.66
2023-03-05T21:45:41.899Z,75.37
2023-03-05T21:48:09.758Z,75.31
2023-03-05T21:50:37.515Z,75.27
2023-03-05T21:53:05.275Z,75.08
2023-03-05T21:55:40.593Z,74.91
2023-03-05T21:58:08.276Z,74.66
2023-03-05T22:00:36.038Z,74.42
2023-03-05T22:03:03.699Z,74.69
2023-03-05T22:05:31.461Z,74.63
2023-03-05T22:07:59.226Z,74.76
2023-03-05T22:10:26.991Z,74.79
2023-03-05T22:13:06.124Z,74.82
2023-03-05T22:15:33.890Z,74.78
2023-03-05T22:18:01.544Z,74.86
2023-03-05T22:20:29.512Z,75.05
2023-03-05T22:22:57.485Z,74.86
2023-03-05T22:25:25.144Z,75.03
2023-03-05T22:27:52.802Z,74.99
2023-03-05T22:30:20.569Z,74.99
2023-03-05T22:32:48.235Z,74.87
2023-03-05T22:35:15.999Z,74.61
2023-03-05T22:37:43.755Z,74.82
2023-03-05T22:40:11.522Z,74.89
2023-03-05T22:42:39.281Z,74.91
2023-03-05T22:45:06.944Z,74.92
2023-03-05T22:47:34.638Z,74.98
2023-03-05T22:50:02.368Z,75.03
2023-03-05T22:52:30.031Z,75.11
2023-03-05T22:54:57.805Z,74.94
2023-03-05T22:57:25.556Z,75.06
2023-03-05T22:59:53.322Z,75.15
2023-03-05T23:02:20.986Z,75.35
2023-03-05T23:05:00.628Z,75.43
2023-03-05T23:07:28.396Z,75.46
2023-03-05T23:09:56.068Z,75.55
2023-03-05T23:12:23.826Z,75.57
2023-03-05T23:14:51.590Z,75.67
2023-03-05T23:17:19.254Z,75.62
2023-03-05T23:19:46.849Z,75.21
2023-03-05T23:22:14.687Z,75.18
2023-03-05T23:24:42.447Z,75.44
2023-03-05T23:27:11.132Z,75.46
2023-03-05T23:29:54.580Z,75.49
2023-03-05T23:32:22.359Z,75.33
2023-03-05T23:34:50.092Z,75.47
2023-03-05T23:37:17.864Z,75.52
2023-03-05T23:39:45.514Z,75.29
2023-03-05T23:42:13.273Z,75.10
2023-03-05T23:44:40.934Z,75.32
2023-03-05T23:47:08.701Z,75.35
2023-03-05T23:49:36.519Z,75.47
2023-03-05T23:52:04.326Z,75.69
2023-03-05T23:54:31.987Z,75.57
2023-03-05T23:56:59.752Z,75.60
2023-03-05T23:59:27.416Z,75.58
